createdAt,value
2023-01-06T12:58:55.935Z,100475.83
2023-01-06T13:07:35.004Z,100463.11
2023-01-06T13:12:44.986Z,100472.17
2023-01-06T13:17:56.882Z,100460.13
2023-01-06T13:23:30.071Z,100453.94
2023-01-06T13:28:40.400Z,100445.76
2023-01-06T13:34:06.704Z,100454.27
2023-01-06T13:39:39.782Z,100456.19
2023-01-06T13:44:44.877Z,100445.02
2023-01-06T13:49:48.687Z,100439.02
2023-01-06T13:54:52.409Z,100437.95
2023-01-06T14:00:05.237Z,100431.75
2023-01-06T14:05:21.449Z,100424.66
2023-01-06T14:10:42.977Z,100423.66
2023-01-06T14:15:57.202Z,100424.49
2023-01-06T14:21:03.295Z,100412.42
2023-01-06T14:26:07.085Z,100395.67
2023-01-06T14:31:26.264Z,100400.38
2023-01-06T14:36:34.162Z,100402.08
2023-01-06T14:41:47.759Z,100404.24
2023-01-06T14:52:55.232Z,100400.85
2023-01-06T14:57:59.077Z,100410.13
2023-01-06T15:03:19.165Z,100411.20
2023-01-06T15:08:23.843Z,100413.77
2023-01-06T15:13:27.494Z,100410.46
2023-01-06T15:18:35.091Z,100396.91
2023-01-06T15:23:44.792Z,100385.39
2023-01-06T15:29:03.111Z,100398.48
2023-01-06T15:34:20.337Z,100402.54
2023-01-06T15:39:28.981Z,100406.52
2023-01-06T15:44:35.073Z,100401.55
2023-01-06T15:49:50.951Z,100405.68
2023-01-06T15:54:56.370Z,100401.99
2023-01-06T16:00:03.367Z,100400.75
2023-01-06T16:05:39.911Z,100399.40
2023-01-06T16:10:45.866Z,100407.33
2023-01-06T16:15:55.246Z,100415.30
2023-01-06T16:21:00.595Z,100415.08
2023-01-06T16:26:14.368Z,100413.18
2023-01-06T16:31:38.331Z,100419.92
2023-01-06T16:36:42.183Z,100418.58
2023-01-06T16:42:38.777Z,100410.04
2023-01-06T16:47:43.359Z,100405.68
2023-01-06T16:52:50.357Z,100407.52
2023-01-06T16:57:54.528Z,100405.03
2023-01-06T17:02:58.162Z,100408.24
2023-01-06T17:08:03.206Z,100417.98
2023-01-06T17:13:25.614Z,100423.09
2023-01-06T17:18:32.413Z,100423.92
2023-01-06T17:24:08.531Z,100429.11
2023-01-06T17:29:21.945Z,100432.66
2023-01-06T17:34:33.998Z,100437.04
2023-01-06T17:39:45.035Z,100441.71
2023-01-06T17:44:52.504Z,100448.04
2023-01-06T17:49:58.303Z,100446.66
2023-01-06T17:55:44.867Z,100445.06
2023-01-06T18:00:48.590Z,100449.04
2023-01-06T18:06:26.577Z,100456.14
2023-01-06T18:11:35.927Z,100462.35
2023-01-06T18:16:39.868Z,100469.67
2023-01-06T18:21:45.728Z,100472.48
2023-01-06T18:27:00.796Z,100472.84
2023-01-06T18:32:26.307Z,100479.91
2023-01-06T18:37:34.706Z,100481.07
2023-01-06T18:42:45.561Z,100487.53
2023-01-06T18:48:17.357Z,100495.70
2023-01-06T18:53:32.269Z,100491.02
2023-01-06T18:58:47.452Z,100493.10
2023-01-06T19:04:05.167Z,100488.83
2023-01-06T19:09:19.576Z,100484.06
2023-01-06T19:14:26.633Z,100484.72
2023-01-06T19:19:41.096Z,100485.45
2023-01-06T19:24:55.366Z,100487.02
2023-01-06T19:30:41.916Z,100493.25
2023-01-06T19:36:32.930Z,100504.50
2023-01-06T19:41:37.233Z,100508.50
2023-01-06T19:46:43.752Z,100513.04
2023-01-06T19:51:53.019Z,100507.17
2023-01-06T19:56:57.192Z,100518.87
2023-01-06T20:02:10.640Z,100526.45
2023-01-06T20:07:14.490Z,100536.44
2023-01-06T20:12:25.760Z,100534.66
2023-01-06T20:17:29.888Z,100527.10
2023-01-06T20:22:34.232Z,100544.63
2023-01-06T20:27:38.924Z,100548.80
2023-01-06T20:32:43.541Z,100551.45
2023-01-06T20:37:47.703Z,100554.94
2023-01-06T20:42:53.362Z,100560.40
2023-01-06T20:47:58.103Z,100568.26
2023-01-06T20:53:02.078Z,100570.81
2023-01-06T20:58:05.743Z,100579.14
2023-01-06T21:03:09.880Z,100583.91
2023-01-06T21:08:14.483Z,100586.40
2023-01-06T21:13:18.534Z,100587.15
2023-01-06T21:18:22.276Z,100593.54
2023-01-06T21:23:26.164Z,100598.07
2023-01-06T21:28:29.870Z,100603.41
2023-01-06T21:33:33.542Z,100614.70
2023-01-06T21:38:37.730Z,100616.74
2023-01-06T21:43:41.543Z,100618.83
2023-01-06T21:48:46.188Z,100619.57
2023-01-06T21:53:49.976Z,100626.87
2023-01-06T21:58:54.390Z,100632.80
2023-01-06T22:03:58.088Z,100642.66
2023-01-06T22:09:04.754Z,100656.17
2023-01-06T22:14:09.486Z,100661.77
2023-01-06T22:19:14.504Z,100656.48
2023-01-06T22:24:18.873Z,100660.02
2023-01-06T22:29:22.419Z,100660.36
2023-01-06T22:34:26.174Z,100666.80
2023-01-06T22:39:29.802Z,100670.05
2023-01-06T22:44:33.462Z,100674.88
2023-01-06T22:49:37.232Z,100676.95
2023-01-06T22:54:40.963Z,100675.88
2023-01-06T22:59:53.591Z,100670.67
2023-01-06T23:05:00.194Z,100678.38
2023-01-06T23:10:04.160Z,100684.97
2023-01-06T23:15:09.065Z,100681.16
2023-01-06T23:20:12.743Z,100687.59
2023-01-06T23:25:16.409Z,100689.84
2023-01-06T23:30:23.582Z,100690.71
2023-01-06T23:35:27.377Z,100691.34
2023-01-06T23:40:31.475Z,100691.17
2023-01-06T23:45:38.323Z,100694.73
2023-01-06T23:50:50.167Z,100700.31
2023-01-06T23:56:18.143Z,100696.41
